createdAt,value
2022-11-16T00:00:15.472Z,-1.71
2022-11-16T00:01:15.530Z,-1.70
2022-11-16T00:02:15.549Z,-1.70
2022-11-16T00:03:16.573Z,-1.69
2022-11-16T00:04:15.562Z,-1.70
2022-11-16T00:05:15.588Z,-1.70
2022-11-16T00:06:15.596Z,-1.70
2022-11-16T00:07:15.728Z,-1.71
2022-11-16T00:08:15.630Z,-1.70
2022-11-16T00:09:15.697Z,-1.69
2022-11-16T00:10:15.684Z,-1.70
2022-11-16T00:11:15.722Z,-1.68
2022-11-16T00:12:15.719Z,-1.65
2022-11-16T00:13:15.759Z,-1.65
2022-11-16T00:14:15.891Z,-1.65
2022-11-16T00:15:19.675Z,-1.68
2022-11-16T00:16:19.781Z,-1.67
2022-11-16T00:17:19.782Z,-1.67
2022-11-16T00:18:19.841Z,-1.67
2022-11-16T00:19:19.982Z,-1.64
2022-11-16T00:20:19.851Z,-1.65
2022-11-16T00:21:19.839Z,-1.64
2022-11-16T00:22:19.872Z,-1.64
2022-11-16T00:23:19.876Z,-1.65
2022-11-16T00:24:20.004Z,-1.67
2022-11-16T00:25:19.922Z,-1.67
2022-11-16T00:26:19.941Z,-1.67
2022-11-16T00:27:19.937Z,-1.67
2022-11-16T00:28:19.968Z,-1.67
2022-11-16T00:29:20.411Z,-1.69
2022-11-16T00:30:20.131Z,-1.64
2022-11-16T00:31:20.007Z,-1.65
2022-11-16T00:32:20.034Z,-1.63
2022-11-16T00:33:20.036Z,-1.67
2022-11-16T00:34:20.209Z,-1.68
2022-11-16T00:35:20.061Z,-1.67
2022-11-16T00:36:20.109Z,-1.67
2022-11-16T00:37:20.077Z,-1.65
2022-11-16T00:38:20.102Z,-1.64
2022-11-16T00:39:20.113Z,-1.64
2022-11-16T00:40:20.112Z,-1.62
2022-11-16T00:41:20.145Z,-1.64
2022-11-16T00:42:20.127Z,-1.62
2022-11-16T00:43:20.119Z,-1.63
2022-11-16T00:44:20.152Z,-1.63
2022-11-16T00:45:20.268Z,-1.62
2022-11-16T00:46:25.128Z,-1.61
2022-11-16T00:47:25.146Z,-1.62
2022-11-16T00:48:25.141Z,-1.62
2022-11-16T00:49:25.172Z,-1.61
2022-11-16T00:50:25.146Z,-1.62
2022-11-16T00:51:25.211Z,-1.61
2022-11-16T00:52:25.183Z,-1.60
2022-11-16T00:53:25.246Z,-1.58
2022-11-16T00:54:25.207Z,-1.58
2022-11-16T00:55:25.265Z,-1.58
2022-11-16T00:56:25.242Z,-1.60
2022-11-16T00:57:25.250Z,-1.59
2022-11-16T00:58:25.248Z,-1.58
2022-11-16T00:59:25.266Z,-1.59
2022-11-16T01:00:25.268Z,-1.58
2022-11-16T01:01:25.468Z,-1.59
2022-11-16T01:02:25.314Z,-1.58
2022-11-16T01:03:25.356Z,-1.59
2022-11-16T01:04:25.306Z,-1.57
2022-11-16T01:05:25.475Z,-1.57
2022-11-16T01:06:25.329Z,-1.56
2022-11-16T01:07:25.426Z,-1.55
2022-11-16T01:08:25.346Z,-1.56
2022-11-16T01:09:30.249Z,-1.55
2022-11-16T01:10:30.390Z,-1.56
2022-11-16T01:11:30.366Z,-1.57
2022-11-16T01:12:30.453Z,-1.54
2022-11-16T01:13:30.399Z,-1.54
2022-11-16T01:14:30.471Z,-1.54
2022-11-16T01:15:30.564Z,-1.54
2022-11-16T01:16:30.467Z,-1.55
2022-11-16T01:17:30.440Z,-1.54
2022-11-16T01:18:30.978Z,-1.55
2022-11-16T01:19:30.464Z,-1.54
2022-11-16T01:20:30.490Z,-1.54
2022-11-16T01:21:30.507Z,-1.55
2022-11-16T01:22:35.474Z,-1.55
2022-11-16T01:23:35.568Z,-1.56
2022-11-16T01:24:35.531Z,-1.51
2022-11-16T01:25:35.537Z,-1.49
2022-11-16T01:26:35.521Z,-1.51
2022-11-16T01:27:40.487Z,-1.49
2022-11-16T01:28:45.467Z,-1.49
2022-11-16T01:29:45.615Z,-1.49
2022-11-16T01:30:45.610Z,-1.47
2022-11-16T01:31:45.622Z,-1.49
2022-11-16T01:32:45.615Z,-1.47
2022-11-16T01:33:45.662Z,-1.45
2022-11-16T01:34:45.653Z,-1.46
2022-11-16T01:35:45.669Z,-1.44
2022-11-16T01:36:45.652Z,-1.44
2022-11-16T01:37:45.683Z,-1.44
2022-11-16T01:38:45.804Z,-1.44
2022-11-16T01:39:45.767Z,-1.44
2022-11-16T01:40:45.752Z,-1.47
2022-11-16T01:41:45.775Z,-1.47
2022-11-16T01:42:45.740Z,-1.46
2022-11-16T01:43:51.732Z,-1.48
2022-11-16T01:44:51.816Z,-1.45
2022-11-16T01:45:51.778Z,-1.46
2022-11-16T01:46:51.818Z,-1.47
2022-11-16T01:47:51.853Z,-1.49
2022-11-16T01:48:56.727Z,-1.48
2022-11-16T01:50:02.777Z,-1.48
2022-11-16T01:51:02.865Z,-1.49
2022-11-16T01:52:02.840Z,-1.48
2022-11-16T01:53:02.870Z,-1.46
2022-11-16T01:54:02.870Z,-1.47
2022-11-16T01:55:02.931Z,-1.47
2022-11-16T01:56:02.886Z,-1.45
2022-11-16T01:57:07.820Z,-1.48
2022-11-16T01:58:07.936Z,-1.47
2022-11-16T01:59:07.924Z,-1.45
2022-11-16T02:00:13.236Z,-1.46
2022-11-16T02:01:13.019Z,-1.47
2022-11-16T02:02:12.936Z,-1.48
2022-11-16T02:03:12.959Z,-1.48
2022-11-16T02:04:12.951Z,-1.49
2022-11-16T02:05:13.019Z,-1.49
2022-11-16T02:06:12.967Z,-1.49
2022-11-16T02:07:13.090Z,-1.48
2022-11-16T02:08:12.993Z,-1.47
2022-11-16T02:09:13.030Z,-1.47
2022-11-16T02:10:13.055Z,-1.46
2022-11-16T02:12:18.040Z,-1.48
2022-11-16T02:13:18.088Z,-1.47
2022-11-16T02:14:18.076Z,-1.48
2022-11-16T02:15:18.109Z,-1.49
2022-11-16T02:16:18.093Z,-1.49
2022-11-16T02:17:18.150Z,-1.49
2022-11-16T02:18:18.122Z,-1.49
2022-11-16T02:19:22.069Z,-1.48
2022-11-16T02:20:22.208Z,-1.46
2022-11-16T02:21:22.179Z,-1.46
2022-11-16T02:22:22.250Z,-1.46
2022-11-16T02:23:22.204Z,-1.46
2022-11-16T02:24:27.256Z,-1.45
2022-11-16T02:25:27.284Z,-1.44
2022-11-16T02:26:27.226Z,-1.44
2022-11-16T02:27:27.251Z,-1.43
2022-11-16T02:28:27.245Z,-1.39
2022-11-16T02:29:27.287Z,-1.40
2022-11-16T02:30:27.271Z,-1.39
2022-11-16T02:32:32.250Z,-1.39
2022-11-16T02:33:32.340Z,-1.39
2022-11-16T02:34:32.341Z,-1.38
2022-11-16T02:35:32.376Z,-1.41
2022-11-16T02:36:32.344Z,-1.41
2022-11-16T02:37:32.433Z,-1.39
2022-11-16T02:38:32.739Z,-1.42
2022-11-16T02:39:32.433Z,-1.41
2022-11-16T02:40:32.418Z,-1.41
2022-11-16T02:41:32.446Z,-1.42
2022-11-16T02:42:32.471Z,-1.43
2022-11-16T02:43:32.474Z,-1.44
2022-11-16T02:44:32.506Z,-1.42
2022-11-16T02:45:32.529Z,-1.50
2022-11-16T02:46:32.515Z,-1.53
2022-11-16T02:47:32.586Z,-1.51
2022-11-16T02:48:32.956Z,-1.50
2022-11-16T02:49:38.465Z,-1.49
2022-11-16T02:50:38.609Z,-1.49
2022-11-16T02:51:38.626Z,-1.49
2022-11-16T02:52:38.697Z,-1.50
2022-11-16T02:53:38.648Z,-1.49
2022-11-16T02:54:38.680Z,-1.50
2022-11-16T02:55:38.666Z,-1.48
2022-11-16T02:56:43.610Z,-1.46
2022-11-16T02:57:43.784Z,-1.45
2022-11-16T02:58:43.699Z,-1.45
2022-11-16T02:59:49.637Z,-1.45
2022-11-16T03:00:49.826Z,-1.44
2022-11-16T03:01:49.747Z,-1.45
2022-11-16T03:02:49.835Z,-1.44
2022-11-16T03:03:49.783Z,-1.44
2022-11-16T03:04:49.833Z,-1.44
2022-11-16T03:05:49.814Z,-1.44
2022-11-16T03:06:49.889Z,-1.43
2022-11-16T03:07:49.847Z,-1.45
2022-11-16T03:08:49.851Z,-1.45
2022-11-16T03:09:49.844Z,-1.44
2022-11-16T03:10:49.868Z,-1.45
2022-11-16T03:11:49.874Z,-1.43
2022-11-16T03:14:43.891Z,-1.44
2022-11-16T03:15:43.920Z,-1.44
2022-11-16T03:16:43.950Z,-1.44
2022-11-16T03:17:43.949Z,-1.44
2022-11-16T03:18:43.985Z,-1.45
2022-11-16T03:19:44.007Z,-1.47
2022-11-16T03:20:44.025Z,-1.49
2022-11-16T03:21:44.013Z,-1.49
2022-11-16T03:22:44.048Z,-1.48
2022-11-16T03:23:44.022Z,-1.48
2022-11-16T03:24:44.086Z,-1.50
2022-11-16T03:25:44.105Z,-1.50
2022-11-16T03:26:50.001Z,-1.49
2022-11-16T03:27:50.120Z,-1.48
2022-11-16T03:28:50.141Z,-1.48
2022-11-16T03:29:55.091Z,-1.51
2022-11-16T03:30:55.189Z,-1.51
2022-11-16T03:31:55.162Z,-1.50
2022-11-16T03:32:55.188Z,-1.53
2022-11-16T03:33:55.184Z,-1.54
2022-11-16T03:34:59.143Z,-1.55
2022-11-16T03:35:59.268Z,-1.56
2022-11-16T03:36:59.249Z,-1.56
2022-11-16T03:37:59.293Z,-1.55
2022-11-16T03:38:59.296Z,-1.56
2022-11-16T03:39:59.339Z,-1.55
2022-11-16T03:40:59.317Z,-1.56
2022-11-16T03:41:59.341Z,-1.57
2022-11-16T03:42:59.350Z,-1.57
2022-11-16T03:43:59.386Z,-1.58
2022-11-16T03:44:59.408Z,-1.58
2022-11-16T03:45:59.454Z,-1.58
2022-11-16T03:46:59.430Z,-1.58
2022-11-16T03:47:59.487Z,-1.59
2022-11-16T03:48:59.480Z,-1.59
2022-11-16T03:49:59.523Z,-1.58
2022-11-16T03:50:59.530Z,-1.59
2022-11-16T03:51:59.569Z,-1.59
2022-11-16T03:52:59.557Z,-1.60
2022-11-16T03:53:59.602Z,-1.60
2022-11-16T03:54:59.619Z,-1.59
2022-11-16T03:55:59.700Z,-1.57
2022-11-16T03:56:59.626Z,-1.59
2022-11-16T03:57:59.639Z,-1.59
2022-11-16T03:58:59.644Z,-1.59
2022-11-16T03:59:59.656Z,-1.58
2022-11-16T04:00:59.684Z,-1.58
2022-11-16T04:01:59.698Z,-1.59
2022-11-16T04:03:04.607Z,-1.57
2022-11-16T04:04:04.695Z,-1.56
2022-11-16T04:05:04.707Z,-1.58
2022-11-16T04:06:04.719Z,-1.56
2022-11-16T04:07:04.776Z,-1.56
2022-11-16T04:08:04.746Z,-1.54
2022-11-16T04:09:04.734Z,-1.56
2022-11-16T04:10:04.792Z,-1.56
2022-11-16T04:11:04.783Z,-1.57
2022-11-16T04:12:10.685Z,-1.56
2022-11-16T04:13:10.805Z,-1.55
2022-11-16T04:14:10.806Z,-1.57
2022-11-16T04:15:10.870Z,-1.58
2022-11-16T04:16:10.858Z,-1.58
2022-11-16T04:17:10.861Z,-1.57
2022-11-16T04:18:10.870Z,-1.59
2022-11-16T04:19:10.896Z,-1.58
2022-11-16T04:20:10.890Z,-1.58
2022-11-16T04:21:10.962Z,-1.57
2022-11-16T04:22:10.949Z,-1.56
2022-11-16T04:23:11.068Z,-1.56
2022-11-16T04:24:11.035Z,-1.59
2022-11-16T04:25:11.111Z,-1.57
2022-11-16T04:26:11.100Z,-1.58
2022-11-16T04:27:11.086Z,-1.58
2022-11-16T04:28:11.101Z,-1.59
2022-11-16T04:29:15.980Z,-1.58
2022-11-16T04:30:16.108Z,-1.58
2022-11-16T04:31:16.116Z,-1.57
2022-11-16T04:32:16.154Z,-1.59
2022-11-16T04:33:16.147Z,-1.58
2022-11-16T04:34:16.178Z,-1.58
2022-11-16T04:35:16.208Z,-1.59
2022-11-16T04:36:20.371Z,-1.60
2022-11-16T04:37:16.232Z,-1.60
2022-11-16T04:38:16.252Z,-1.60
2022-11-16T04:39:16.258Z,-1.61
2022-11-16T04:40:16.277Z,-1.64
2022-11-16T04:41:16.303Z,-1.63
2022-11-16T04:42:16.304Z,-1.62
2022-11-16T04:43:16.351Z,-1.61
2022-11-16T04:44:16.357Z,-1.61
2022-11-16T04:45:16.371Z,-1.61
2022-11-16T04:46:16.422Z,-1.61
2022-11-16T04:47:16.403Z,-1.62
2022-11-16T04:48:16.455Z,-1.61
2022-11-16T04:49:16.428Z,-1.61
2022-11-16T04:50:16.455Z,-1.61
2022-11-16T04:51:16.490Z,-1.62
2022-11-16T04:52:16.487Z,-1.64
2022-11-16T04:53:16.534Z,-1.63
2022-11-16T04:54:20.422Z,-1.67
2022-11-16T04:55:20.551Z,-1.68
2022-11-16T04:56:20.573Z,-1.65
2022-11-16T04:57:20.581Z,-1.67
2022-11-16T04:58:20.645Z,-1.68
2022-11-16T04:59:20.624Z,-1.67
2022-11-16T05:00:20.611Z,-1.68
2022-11-16T05:01:20.818Z,-1.69
2022-11-16T05:02:20.689Z,-1.70
2022-11-16T05:03:20.734Z,-1.73
2022-11-16T05:04:20.701Z,-1.74
2022-11-16T05:05:20.763Z,-1.73
2022-11-16T05:06:20.761Z,-1.78
2022-11-16T05:07:20.900Z,-1.78
2022-11-16T05:08:20.815Z,-1.78
2022-11-16T05:09:20.830Z,-1.77
2022-11-16T05:10:20.842Z,-1.78
2022-11-16T05:11:20.892Z,-1.77
2022-11-16T05:12:20.869Z,-1.82
2022-11-16T05:13:25.834Z,-1.79
2022-11-16T05:14:29.795Z,-1.82
2022-11-16T05:15:29.930Z,-1.82
2022-11-16T05:16:29.932Z,-1.84
2022-11-16T05:17:29.960Z,-1.83
2022-11-16T05:18:30.023Z,-1.86
2022-11-16T05:19:29.992Z,-1.88
2022-11-16T05:20:29.992Z,-1.89
2022-11-16T05:21:30.067Z,-1.90
2022-11-16T05:22:30.487Z,-1.91
2022-11-16T05:23:34.000Z,-1.92
2022-11-16T05:24:34.070Z,-1.93
2022-11-16T05:25:36.706Z,-1.94
2022-11-16T05:26:34.111Z,-1.94
2022-11-16T05:27:34.096Z,-1.93
2022-11-16T05:28:34.586Z,-2.00
2022-11-16T05:29:34.120Z,-2.00
2022-11-16T05:30:34.178Z,-2.01
2022-11-16T05:31:40.143Z,-2.02
2022-11-16T05:32:34.192Z,-2.00
2022-11-16T05:33:34.177Z,-2.00
2022-11-16T05:34:34.223Z,-2.00
2022-11-16T05:35:34.244Z,-2.04
2022-11-16T05:36:34.251Z,-2.08
2022-11-16T05:37:34.246Z,-2.10
2022-11-16T05:38:34.559Z,-2.10
2022-11-16T05:39:34.266Z,-2.12
2022-11-16T05:40:34.304Z,-2.10
2022-11-16T05:41:34.318Z,-2.07
2022-11-16T05:42:34.315Z,-2.08
2022-11-16T05:43:34.316Z,-2.08
2022-11-16T05:44:38.196Z,-2.07
2022-11-16T05:45:38.366Z,-2.08
2022-11-16T05:46:38.324Z,-2.09
2022-11-16T05:47:38.364Z,-2.10
2022-11-16T05:48:38.358Z,-2.12
2022-11-16T05:49:38.404Z,-2.14
2022-11-16T05:50:42.570Z,-2.16
2022-11-16T05:51:38.426Z,-2.15
2022-11-16T05:52:38.383Z,-2.17
2022-11-16T05:53:38.398Z,-2.20
2022-11-16T05:54:38.395Z,-2.20
2022-11-16T05:55:38.423Z,-2.21
2022-11-16T05:56:38.529Z,-2.21
2022-11-16T05:57:38.474Z,-2.22
2022-11-16T05:58:38.430Z,-2.23
2022-11-16T05:59:38.448Z,-2.23
2022-11-16T06:01:43.424Z,-2.26
2022-11-16T06:02:43.583Z,-2.28
2022-11-16T06:03:43.476Z,-2.30
2022-11-16T06:04:43.498Z,-2.29
2022-11-16T06:05:43.479Z,-2.29
2022-11-16T06:06:43.526Z,-2.33
2022-11-16T06:07:43.510Z,-2.33
2022-11-16T06:08:43.589Z,-2.34
2022-11-16T06:09:43.534Z,-2.35
2022-11-16T06:10:43.573Z,-2.33
2022-11-16T06:11:43.649Z,-2.34
2022-11-16T06:12:43.592Z,-2.33
2022-11-16T06:13:43.628Z,-2.35
2022-11-16T06:14:43.635Z,-2.35
2022-11-16T06:15:49.306Z,-2.34
2022-11-16T06:16:47.559Z,-2.36
2022-11-16T06:17:47.672Z,-2.37
2022-11-16T06:18:47.718Z,-2.36
2022-11-16T06:19:47.679Z,-2.37
2022-11-16T06:20:47.701Z,-2.37
2022-11-16T06:21:47.758Z,-2.39
2022-11-16T06:22:47.724Z,-2.39
2022-11-16T06:23:52.691Z,-2.41
2022-11-16T06:24:52.779Z,-2.42
2022-11-16T06:25:52.755Z,-2.42
2022-11-16T06:26:52.784Z,-2.42
2022-11-16T06:27:52.770Z,-2.45
2022-11-16T06:28:52.847Z,-2.46
2022-11-16T06:29:52.786Z,-2.46
2022-11-16T06:30:52.831Z,-2.45
2022-11-16T06:33:46.751Z,-2.47
2022-11-16T06:34:46.856Z,-2.48
2022-11-16T06:35:46.819Z,-2.49
2022-11-16T06:36:46.853Z,-2.48
2022-11-16T06:37:46.816Z,-2.51
2022-11-16T06:38:46.843Z,-2.54
2022-11-16T06:39:46.836Z,-2.54
2022-11-16T06:40:46.858Z,-2.58
2022-11-16T06:41:46.830Z,-2.58
2022-11-16T06:42:46.860Z,-2.61
2022-11-16T06:43:46.854Z,-2.61
2022-11-16T06:44:46.858Z,-2.62
2022-11-16T06:45:46.843Z,-2.62
2022-11-16T06:46:46.919Z,-2.64
2022-11-16T06:47:46.862Z,-2.64
2022-11-16T06:48:46.878Z,-2.65
2022-11-16T06:49:46.877Z,-2.64
2022-11-16T06:50:46.935Z,-2.64
2022-11-16T06:51:46.911Z,-2.63
2022-11-16T06:52:46.967Z,-2.62
2022-11-16T06:53:46.906Z,-2.61
2022-11-16T06:54:46.953Z,-2.61
2022-11-16T06:55:46.956Z,-2.61
2022-11-16T06:56:46.953Z,-2.62
2022-11-16T06:57:46.946Z,-2.61
2022-11-16T06:58:46.991Z,-2.59
2022-11-16T06:59:46.987Z,-2.59
2022-11-16T07:00:47.057Z,-2.58
2022-11-16T07:01:47.081Z,-2.58
2022-11-16T07:02:47.037Z,-2.57
2022-11-16T07:03:47.050Z,-2.56
2022-11-16T07:04:47.098Z,-2.57
2022-11-16T07:05:47.052Z,-2.56
2022-11-16T07:06:47.249Z,-2.54
2022-11-16T07:07:47.073Z,-2.50
2022-11-16T07:08:47.118Z,-2.45
2022-11-16T07:09:47.079Z,-2.47
2022-11-16T07:10:47.123Z,-2.42
2022-11-16T07:11:47.102Z,-2.45
2022-11-16T07:12:47.112Z,-2.42
2022-11-16T07:13:47.099Z,-2.38
2022-11-16T07:14:47.148Z,-2.36
2022-11-16T07:15:47.077Z,-2.33
2022-11-16T07:16:47.113Z,-2.34
2022-11-16T07:17:47.091Z,-2.31
2022-11-16T07:18:52.008Z,-2.31
2022-11-16T07:19:52.149Z,-2.34
2022-11-16T07:20:52.153Z,-2.32
2022-11-16T07:21:52.142Z,-2.24
2022-11-16T07:22:52.131Z,-2.19
2022-11-16T07:23:52.156Z,-2.14
2022-11-16T07:24:52.147Z,-2.02
2022-11-16T07:25:52.182Z,-1.91
2022-11-16T07:26:52.136Z,-1.86
2022-11-16T07:27:52.177Z,-1.87
2022-11-16T07:28:52.145Z,-1.86
2022-11-16T07:29:52.168Z,-1.87
2022-11-16T07:30:52.136Z,-1.84
2022-11-16T07:31:53.198Z,-1.70
2022-11-16T07:32:53.160Z,-1.67
2022-11-16T07:33:58.117Z,-1.62
2022-11-16T07:34:59.446Z,-1.56
2022-11-16T07:35:58.153Z,-1.56
2022-11-16T07:36:58.201Z,-1.55
2022-11-16T07:37:58.175Z,-1.57
2022-11-16T07:39:03.113Z,-1.54
2022-11-16T07:40:03.207Z,-1.55
2022-11-16T07:41:03.201Z,-1.54
2022-11-16T07:42:03.255Z,-1.30
2022-11-16T07:43:03.211Z,-1.23
2022-11-16T07:44:03.245Z,-1.23
2022-11-16T07:45:03.254Z,-1.16
2022-11-16T07:46:30.484Z,-1.14
2022-11-16T07:47:03.252Z,-1.10
2022-11-16T07:48:03.299Z,-1.09
2022-11-16T07:49:08.362Z,-1.09
2022-11-16T07:50:03.282Z,-1.09
2022-11-16T07:51:03.263Z,-1.06
2022-11-16T07:52:03.318Z,-1.03
2022-11-16T07:53:03.283Z,-1.06
2022-11-16T07:54:03.344Z,-1.03
2022-11-16T07:55:03.305Z,-1.04
2022-11-16T07:56:03.313Z,-1.05
2022-11-16T07:57:03.702Z,-0.99
2022-11-16T07:58:03.352Z,-1.00
2022-11-16T07:59:03.323Z,-0.99
2022-11-16T08:00:07.224Z,-1.00
2022-11-16T08:01:07.311Z,-0.99
2022-11-16T08:02:07.406Z,-0.98
2022-11-16T08:03:07.322Z,-0.98
2022-11-16T08:04:07.309Z,-0.97
2022-11-16T08:05:07.323Z,-0.96
2022-11-16T08:06:07.285Z,-0.95
2022-11-16T08:07:07.343Z,-0.95
2022-11-16T08:08:07.304Z,-0.95
2022-11-16T08:09:07.322Z,-0.96
2022-11-16T08:10:07.341Z,-0.97
2022-11-16T08:11:07.364Z,-0.98
2022-11-16T08:12:07.293Z,-0.99
2022-11-16T08:13:07.354Z,-1.00
2022-11-16T08:14:07.321Z,-1.01
2022-11-16T08:15:07.348Z,-1.02
2022-11-16T08:16:07.305Z,-1.00
2022-11-16T08:17:07.422Z,-0.87
2022-11-16T08:18:07.311Z,-0.79
2022-11-16T08:19:07.338Z,-0.72
2022-11-16T08:20:07.714Z,-0.65
2022-11-16T08:21:07.358Z,-0.56
2022-11-16T08:22:07.330Z,-0.54
2022-11-16T08:23:07.365Z,-0.52
2022-11-16T08:24:07.344Z,-0.46
2022-11-16T08:25:07.348Z,-0.46
2022-11-16T08:26:07.329Z,-0.45
2022-11-16T08:27:07.359Z,-0.41
2022-11-16T08:28:07.346Z,-0.43
2022-11-16T08:29:07.392Z,-0.38
2022-11-16T08:30:07.387Z,-0.39
2022-11-16T08:31:07.405Z,-0.37
2022-11-16T08:32:07.405Z,-0.31
2022-11-16T08:33:07.468Z,-0.32
2022-11-16T08:34:07.462Z,-0.34
2022-11-16T08:35:07.446Z,-0.34
2022-11-16T08:36:13.634Z,-0.35
2022-11-16T08:37:07.435Z,-0.40
2022-11-16T08:38:07.424Z,-0.43
2022-11-16T08:39:07.438Z,-0.84
2022-11-16T08:40:07.476Z,-1.04
2022-11-16T08:41:07.477Z,-1.19
2022-11-16T08:42:07.458Z,-1.49
2022-11-16T08:43:07.514Z,-1.65
2022-11-16T08:44:07.469Z,-2.05
2022-11-16T08:45:07.536Z,-2.29
2022-11-16T08:46:07.520Z,-2.45
2022-11-16T08:47:07.521Z,-2.54
2022-11-16T08:48:07.523Z,-2.60
2022-11-16T08:49:07.543Z,-2.62
2022-11-16T08:50:07.536Z,-2.65
2022-11-16T08:51:17.540Z,-2.67
2022-11-16T08:52:07.558Z,-2.68
2022-11-16T08:53:07.575Z,-2.69
2022-11-16T08:54:07.550Z,-2.71
2022-11-16T08:55:07.568Z,-2.68
2022-11-16T08:56:07.554Z,-2.72
2022-11-16T08:57:07.843Z,-2.71
2022-11-16T08:58:12.487Z,-2.72
2022-11-16T08:59:12.614Z,-2.71
2022-11-16T09:00:12.626Z,-2.68
2022-11-16T09:01:12.672Z,-2.68
2022-11-16T09:02:12.736Z,-2.66
2022-11-16T09:03:16.560Z,-2.63
2022-11-16T09:04:22.541Z,-2.63
2022-11-16T09:05:22.634Z,-2.61
2022-11-16T09:06:22.603Z,-2.58
2022-11-16T09:07:22.736Z,-2.59
2022-11-16T09:08:23.012Z,-2.60
2022-11-16T09:09:22.653Z,-2.59
2022-11-16T09:10:22.656Z,-2.60
2022-11-16T09:11:22.663Z,-2.62
2022-11-16T09:12:22.656Z,-2.62
2022-11-16T09:13:22.726Z,-2.62
2022-11-16T09:14:22.676Z,-2.61
2022-11-16T09:15:22.745Z,-2.64
2022-11-16T09:16:22.745Z,-2.65
2022-11-16T09:17:23.424Z,-2.67
2022-11-16T09:18:22.687Z,-2.66
2022-11-16T09:19:22.749Z,-2.65
2022-11-16T09:20:22.721Z,-2.64
2022-11-16T09:21:22.744Z,-2.63
2022-11-16T09:22:22.721Z,-2.60
2022-11-16T09:23:25.565Z,-2.59
2022-11-16T09:24:22.765Z,-2.54
2022-11-16T09:25:22.826Z,-2.51
2022-11-16T09:26:22.744Z,-2.48
2022-11-16T09:27:22.778Z,-2.47
2022-11-16T09:28:22.743Z,-2.46
2022-11-16T09:29:22.777Z,-2.43
2022-11-16T09:30:22.773Z,-2.41
2022-11-16T09:31:23.755Z,-2.41
2022-11-16T09:32:22.766Z,-2.39
2022-11-16T09:33:22.796Z,-2.38
2022-11-16T09:34:22.836Z,-2.39
2022-11-16T09:35:22.797Z,-2.41
2022-11-16T09:36:22.774Z,-2.42
2022-11-16T09:37:22.836Z,-2.43
2022-11-16T09:38:39.904Z,-2.43
2022-11-16T09:39:31.327Z,-2.45
2022-11-16T09:40:22.885Z,-2.44
2022-11-16T09:41:22.836Z,-2.44
2022-11-16T09:42:22.838Z,-2.44
2022-11-16T09:43:22.856Z,-2.43
2022-11-16T09:44:22.894Z,-2.44
2022-11-16T09:45:22.865Z,-2.46
2022-11-16T09:46:22.861Z,-2.46
2022-11-16T09:47:22.894Z,-2.47
2022-11-16T09:48:22.911Z,-2.47
2022-11-16T09:49:22.975Z,-2.49
2022-11-16T09:50:22.995Z,-2.50
2022-11-16T09:51:22.938Z,-2.49
2022-11-16T09:52:22.951Z,-2.50
2022-11-16T09:53:22.980Z,-2.49
2022-11-16T09:54:22.961Z,-2.50
2022-11-16T09:55:23.003Z,-2.51
2022-11-16T09:56:23.030Z,-2.50
2022-11-16T09:57:23.025Z,-2.50
2022-11-16T09:58:22.966Z,-2.49
2022-11-16T09:59:23.005Z,-2.51
2022-11-16T10:00:23.082Z,-2.54
2022-11-16T10:01:23.104Z,-2.54
2022-11-16T10:02:23.006Z,-2.57
2022-11-16T10:03:23.033Z,-2.56
2022-11-16T10:04:23.061Z,-2.57
2022-11-16T10:05:23.057Z,-2.56
2022-11-16T10:06:23.046Z,-2.54
2022-11-16T10:07:23.117Z,-2.51
2022-11-16T10:08:23.064Z,-2.48
2022-11-16T10:09:23.140Z,-2.47
2022-11-16T10:10:23.108Z,-2.44
2022-11-16T10:11:23.112Z,-2.43
2022-11-16T10:12:23.105Z,-2.38
2022-11-16T10:13:23.162Z,-2.36
2022-11-16T10:14:23.125Z,-2.36
2022-11-16T10:15:23.198Z,-2.35
2022-11-16T10:16:23.173Z,-2.35
2022-11-16T10:17:23.191Z,-2.37
2022-11-16T10:18:23.183Z,-2.37
2022-11-16T10:19:23.253Z,-2.36
2022-11-16T10:20:29.194Z,-2.31
2022-11-16T10:21:23.277Z,-2.27
2022-11-16T10:22:23.262Z,-2.27
2022-11-16T10:23:23.319Z,-2.26
2022-11-16T10:24:23.279Z,-2.24
2022-11-16T10:25:23.327Z,-2.23
2022-11-16T10:26:23.333Z,-2.24
2022-11-16T10:27:23.360Z,-2.21
2022-11-16T10:28:23.335Z,-2.21
2022-11-16T10:29:23.385Z,-2.19
2022-11-16T10:30:23.368Z,-2.15
2022-11-16T10:31:23.422Z,-2.14
2022-11-16T10:32:23.410Z,-2.13
2022-11-16T10:33:23.465Z,-2.10
2022-11-16T10:34:23.408Z,-2.07
2022-11-16T10:35:23.453Z,-2.05
2022-11-16T10:36:23.468Z,-2.04
2022-11-16T10:37:23.462Z,-2.00
2022-11-16T10:38:23.450Z,-2.00
2022-11-16T10:39:23.471Z,-2.00
2022-11-16T10:40:23.489Z,-2.00
2022-11-16T10:41:23.517Z,-1.99
2022-11-16T10:42:23.479Z,-2.01
2022-11-16T10:43:23.546Z,-2.02
2022-11-16T10:44:23.526Z,-2.04
2022-11-16T10:45:23.569Z,-2.06
2022-11-16T10:46:23.597Z,-2.06
2022-11-16T10:47:23.592Z,-2.10
2022-11-16T10:48:23.588Z,-2.15
2022-11-16T10:49:23.620Z,-2.17
2022-11-16T10:50:23.619Z,-2.18
2022-11-16T10:51:23.677Z,-2.19
2022-11-16T10:52:23.650Z,-2.20
2022-11-16T10:53:23.714Z,-2.19
2022-11-16T10:54:23.685Z,-2.18
2022-11-16T10:55:23.708Z,-2.20
2022-11-16T10:58:17.686Z,-2.19
2022-11-16T10:59:17.748Z,-2.16
2022-11-16T11:00:22.134Z,-2.15
2022-11-16T11:01:17.834Z,-2.14
2022-11-16T11:02:17.777Z,-2.14
2022-11-16T11:03:17.822Z,-2.12
2022-11-16T11:04:17.864Z,-2.07
2022-11-16T11:05:17.818Z,-2.03
2022-11-16T11:06:17.849Z,-2.00
2022-11-16T11:07:21.808Z,-1.97
2022-11-16T11:08:21.866Z,-1.93
2022-11-16T11:09:21.858Z,-1.91
2022-11-16T11:10:21.880Z,-1.90
2022-11-16T11:11:21.870Z,-1.87
2022-11-16T11:12:21.898Z,-1.83
2022-11-16T11:13:21.882Z,-1.79
2022-11-16T11:14:21.972Z,-1.77
2022-11-16T11:15:25.802Z,-1.70
2022-11-16T11:16:21.996Z,-1.69
2022-11-16T11:17:21.979Z,-1.65
2022-11-16T11:18:22.023Z,-1.61
2022-11-16T11:19:22.025Z,-1.58
2022-11-16T11:20:22.094Z,-1.55
2022-11-16T11:21:22.075Z,-1.56
2022-11-16T11:22:22.122Z,-1.51
2022-11-16T11:23:22.120Z,-1.50
2022-11-16T11:24:43.797Z,-1.50
2022-11-16T11:25:28.202Z,-1.49
2022-11-16T11:26:33.138Z,-1.48
2022-11-16T11:27:28.195Z,-1.48
2022-11-16T11:28:28.202Z,-1.49
2022-11-16T11:29:28.226Z,-1.45
2022-11-16T11:30:28.244Z,-1.44
2022-11-16T11:31:28.264Z,-1.39
2022-11-16T11:32:28.245Z,-1.35
2022-11-16T11:33:28.275Z,-1.34
2022-11-16T11:34:28.303Z,-1.32
2022-11-16T11:35:28.326Z,-1.31
2022-11-16T11:36:28.342Z,-1.34
2022-11-16T11:37:28.384Z,-1.35
2022-11-16T11:38:28.373Z,-1.41
2022-11-16T11:39:28.669Z,-1.40
2022-11-16T11:40:28.414Z,-1.42
2022-11-16T11:41:28.486Z,-1.46
2022-11-16T11:42:28.470Z,-1.47
2022-11-16T11:43:28.507Z,-1.46
2022-11-16T11:44:28.554Z,-1.48
2022-11-16T11:45:28.571Z,-1.48
2022-11-16T11:46:50.187Z,-1.47
2022-11-16T11:47:56.143Z,-1.50
2022-11-16T11:48:28.604Z,-1.51
2022-11-16T11:49:33.448Z,-1.48
2022-11-16T11:50:28.688Z,-1.46
2022-11-16T11:51:28.739Z,-1.43
2022-11-16T11:52:28.743Z,-1.42
2022-11-16T11:53:28.762Z,-1.39
2022-11-16T11:54:28.811Z,-1.33
2022-11-16T11:55:28.818Z,-1.30
2022-11-16T11:56:28.793Z,-1.26
2022-11-16T11:57:28.863Z,-1.23
2022-11-16T11:58:28.840Z,-1.26
2022-11-16T11:59:28.883Z,-1.29
2022-11-16T12:00:28.872Z,-1.30
2022-11-16T12:01:28.920Z,-1.29
2022-11-16T12:02:28.918Z,-1.33
2022-11-16T12:03:28.954Z,-1.31
2022-11-16T12:04:28.937Z,-1.31
2022-11-16T12:05:28.991Z,-1.33
2022-11-16T12:06:28.976Z,-1.33
2022-11-16T12:07:29.082Z,-1.35
2022-11-16T12:08:29.031Z,-1.35
2022-11-16T12:09:29.078Z,-1.38
2022-11-16T12:10:29.114Z,-1.36
2022-11-16T12:11:29.146Z,-1.38
2022-11-16T12:12:29.147Z,-1.38
2022-11-16T12:13:29.206Z,-1.41
2022-11-16T12:14:29.165Z,-1.42
2022-11-16T12:15:29.226Z,-1.43
2022-11-16T12:16:29.612Z,-1.42
2022-11-16T12:17:29.255Z,-1.44
2022-11-16T12:18:29.264Z,-1.44
2022-11-16T12:19:29.314Z,-1.43
2022-11-16T12:20:29.330Z,-1.39
2022-11-16T12:21:29.819Z,-1.35
2022-11-16T12:22:34.283Z,-1.33
2022-11-16T12:23:34.813Z,-1.32
2022-11-16T12:24:34.360Z,-1.31
2022-11-16T12:25:34.419Z,-1.32
2022-11-16T12:26:34.405Z,-1.31
2022-11-16T12:27:34.446Z,-1.35
2022-11-16T12:28:34.462Z,-1.34
2022-11-16T12:29:34.470Z,-1.36
2022-11-16T12:30:34.521Z,-1.39
2022-11-16T12:31:34.537Z,-1.40
2022-11-16T12:32:39.448Z,-1.41
2022-11-16T12:33:39.602Z,-1.40
2022-11-16T12:34:39.591Z,-1.43
2022-11-16T12:35:39.708Z,-1.45
2022-11-16T12:36:39.590Z,-1.48
2022-11-16T12:37:39.660Z,-1.51
2022-11-16T12:38:39.631Z,-1.51
2022-11-16T12:39:39.679Z,-1.56
2022-11-16T12:40:39.716Z,-1.56
2022-11-16T12:41:39.732Z,-1.56
2022-11-16T12:42:39.767Z,-1.56
2022-11-16T12:43:39.780Z,-1.59
2022-11-16T12:44:39.788Z,-1.58
2022-11-16T12:45:39.961Z,-1.60
2022-11-16T12:46:39.846Z,-1.61
2022-11-16T12:47:39.859Z,-1.62
2022-11-16T12:48:39.879Z,-1.61
2022-11-16T12:49:44.789Z,-1.64
2022-11-16T12:50:45.042Z,-1.65
2022-11-16T12:51:44.924Z,-1.63
2022-11-16T12:52:44.963Z,-1.63
2022-11-16T12:53:44.945Z,-1.61
2022-11-16T12:55:04.340Z,-1.59
2022-11-16T12:55:45.081Z,-1.57
2022-11-16T12:56:48.692Z,-1.54
2022-11-16T12:57:45.003Z,-1.53
2022-11-16T12:58:45.063Z,-1.49
2022-11-16T12:59:45.035Z,-1.46
2022-11-16T13:00:45.175Z,-1.45
2022-11-16T13:01:45.179Z,-1.42
2022-11-16T13:02:45.123Z,-1.42
2022-11-16T13:03:45.103Z,-1.42
2022-11-16T13:04:45.144Z,-1.38